sensor_id;sensor_type;location;lat;lon;timestamp;P1;durP1;ratioP1;P2;durP2;ratioP2
75603;SDS011;64187;51.010;13.792;2023-06-14T00:01:02;5.32;;;2.55;;
75603;SDS011;64187;51.010;13.792;2023-06-14T00:06:01;2.95;;;2.00;;
75603;SDS011;64187;51.010;13.792;2023-06-14T00:11:00;3.60;;;2.50;;
75603;SDS011;64187;51.010;13.792;2023-06-14T00:15:59;2.85;;;2.30;;
75603;SDS011;64187;51.010;13.792;2023-06-14T00:20:58;4.32;;;2.20;;
75603;SDS011;64187;51.010;13.792;2023-06-14T00:25:59;3.10;;;2.38;;
75603;SDS011;64187;51.010;13.792;2023-06-14T00:30:58;4.32;;;2.38;;
75603;SDS011;64187;51.010;13.792;2023-06-14T00:35:59;3.15;;;2.85;;
75603;SDS011;64187;51.010;13.792;2023-06-14T00:40:58;3.03;;;2.15;;
75603;SDS011;64187;51.010;13.792;2023-06-14T00:45:57;2.90;;;2.22;;
75603;SDS011;64187;51.010;13.792;2023-06-14T00:50:56;3.80;;;2.40;;
75603;SDS011;64187;51.010;13.792;2023-06-14T00:55:56;3.67;;;3.38;;
75603;SDS011;64187;51.010;13.792;2023-06-14T01:00:55;2.88;;;2.25;;
75603;SDS011;64187;51.010;13.792;2023-06-14T01:06:00;3.10;;;2.17;;
75603;SDS011;64187;51.010;13.792;2023-06-14T01:11:28;2.92;;;2.13;;
75603;SDS011;64187;51.010;13.792;2023-06-14T01:16:36;3.20;;;2.90;;
75603;SDS011;64187;51.010;13.792;2023-06-14T01:21:38;5.95;;;2.55;;
75603;SDS011;64187;51.010;13.792;2023-06-14T01:26:40;3.33;;;2.67;;
75603;SDS011;64187;51.010;13.792;2023-06-14T01:31:44;8.35;;;3.28;;
75603;SDS011;64187;51.010;13.792;2023-06-14T01:36:44;4.45;;;2.80;;
75603;SDS011;64187;51.010;13.792;2023-06-14T01:41:44;4.32;;;2.83;;
75603;SDS011;64187;51.010;13.792;2023-06-14T01:46:45;3.13;;;2.65;;
75603;SDS011;64187;51.010;13.792;2023-06-14T01:51:44;5.78;;;3.10;;
75603;SDS011;64187;51.010;13.792;2023-06-14T01:56:43;3.20;;;2.42;;
75603;SDS011;64187;51.010;13.792;2023-06-14T02:01:42;3.25;;;2.30;;
75603;SDS011;64187;51.010;13.792;2023-06-14T02:06:41;5.63;;;2.92;;
75603;SDS011;64187;51.010;13.792;2023-06-14T02:11:40;5.60;;;2.72;;
75603;SDS011;64187;51.010;13.792;2023-06-14T02:16:39;3.78;;;3.17;;
75603;SDS011;64187;51.010;13.792;2023-06-14T02:21:39;3.45;;;2.42;;
75603;SDS011;64187;51.010;13.792;2023-06-14T02:26:37;4.07;;;2.33;;
75603;SDS011;64187;51.010;13.792;2023-06-14T02:31:37;3.50;;;2.80;;
75603;SDS011;64187;51.010;13.792;2023-06-14T02:36:37;5.82;;;3.15;;
75603;SDS011;64187;51.010;13.792;2023-06-14T02:41:40;4.60;;;2.97;;
75603;SDS011;64187;51.010;13.792;2023-06-14T02:46:39;3.95;;;2.70;;
75603;SDS011;64187;51.010;13.792;2023-06-14T02:51:38;9.43;;;3.15;;
75603;SDS011;64187;51.010;13.792;2023-06-14T02:56:37;3.95;;;3.50;;
75603;SDS011;64187;51.010;13.792;2023-06-14T03:01:36;3.78;;;2.63;;
75603;SDS011;64187;51.010;13.792;2023-06-14T03:06:43;4.40;;;3.17;;
75603;SDS011;64187;51.010;13.792;2023-06-14T03:11:44;3.58;;;2.50;;
75603;SDS011;64187;51.010;13.792;2023-06-14T03:16:43;3.70;;;2.88;;
75603;SDS011;64187;51.010;13.792;2023-06-14T03:21:45;4.65;;;3.17;;
75603;SDS011;64187;51.010;13.792;2023-06-14T03:26:44;3.63;;;2.85;;
75603;SDS011;64187;51.010;13.792;2023-06-14T03:31:57;5.25;;;3.30;;
75603;SDS011;64187;51.010;13.792;2023-06-14T03:37:04;5.55;;;3.05;;
75603;SDS011;64187;51.010;13.792;2023-06-14T03:42:03;5.13;;;2.85;;
75603;SDS011;64187;51.010;13.792;2023-06-14T03:47:04;3.85;;;2.80;;
75603;SDS011;64187;51.010;13.792;2023-06-14T03:52:03;6.70;;;4.10;;
75603;SDS011;64187;51.010;13.792;2023-06-14T03:57:04;7.28;;;3.60;;
75603;SDS011;64187;51.010;13.792;2023-06-14T04:02:05;4.65;;;2.92;;
75603;SDS011;64187;51.010;13.792;2023-06-14T04:07:05;5.05;;;2.95;;
75603;SDS011;64187;51.010;13.792;2023-06-14T04:12:04;4.95;;;2.60;;
75603;SDS011;64187;51.010;13.792;2023-06-14T04:17:04;4.45;;;3.13;;
75603;SDS011;64187;51.010;13.792;2023-06-14T04:22:03;7.72;;;3.08;;
75603;SDS011;64187;51.010;13.792;2023-06-14T04:27:05;3.83;;;2.78;;
75603;SDS011;64187;51.010;13.792;2023-06-14T04:32:07;6.22;;;3.22;;
75603;SDS011;64187;51.010;13.792;2023-06-14T04:37:09;4.22;;;3.03;;
75603;SDS011;64187;51.010;13.792;2023-06-14T04:47:13;3.45;;;2.60;;
75603;SDS011;64187;51.010;13.792;2023-06-14T04:52:14;4.30;;;3.40;;
75603;SDS011;64187;51.010;13.792;2023-06-14T04:57:15;4.57;;;3.17;;
75603;SDS011;64187;51.010;13.792;2023-06-14T05:02:18;3.30;;;2.40;;
75603;SDS011;64187;51.010;13.792;2023-06-14T05:07:17;3.78;;;3.33;;
75603;SDS011;64187;51.010;13.792;2023-06-14T05:12:16;5.88;;;3.70;;
75603;SDS011;64187;51.010;13.792;2023-06-14T05:17:17;5.28;;;4.15;;
75603;SDS011;64187;51.010;13.792;2023-06-14T05:22:16;5.20;;;3.90;;
75603;SDS011;64187;51.010;13.792;2023-06-14T05:27:16;6.07;;;4.05;;
75603;SDS011;64187;51.010;13.792;2023-06-14T05:32:15;4.70;;;3.55;;
75603;SDS011;64187;51.010;13.792;2023-06-14T05:37:14;5.57;;;3.95;;
75603;SDS011;64187;51.010;13.792;2023-06-14T05:42:13;6.40;;;3.90;;
75603;SDS011;64187;51.010;13.792;2023-06-14T05:47:12;5.07;;;4.18;;
75603;SDS011;64187;51.010;13.792;2023-06-14T05:52:11;7.80;;;4.57;;
75603;SDS011;64187;51.010;13.792;2023-06-14T05:57:11;6.07;;;4.65;;
75603;SDS011;64187;51.010;13.792;2023-06-14T06:02:10;5.25;;;4.32;;
75603;SDS011;64187;51.010;13.792;2023-06-14T06:07:09;5.90;;;4.15;;
75603;SDS011;64187;51.010;13.792;2023-06-14T06:12:08;4.78;;;4.25;;
75603;SDS011;64187;51.010;13.792;2023-06-14T06:17:07;5.70;;;3.80;;
75603;SDS011;64187;51.010;13.792;2023-06-14T06:22:06;5.15;;;3.40;;
75603;SDS011;64187;51.010;13.792;2023-06-14T06:27:05;6.35;;;4.00;;
75603;SDS011;64187;51.010;13.792;2023-06-14T06:32:06;6.82;;;4.10;;
75603;SDS011;64187;51.010;13.792;2023-06-14T06:37:07;5.38;;;3.88;;
75603;SDS011;64187;51.010;13.792;2023-06-14T06:42:06;6.28;;;4.72;;
75603;SDS011;64187;51.010;13.792;2023-06-14T06:47:08;7.30;;;4.88;;
75603;SDS011;64187;51.010;13.792;2023-06-14T06:52:08;5.97;;;4.10;;
75603;SDS011;64187;51.010;13.792;2023-06-14T06:57:07;4.80;;;4.30;;
75603;SDS011;64187;51.010;13.792;2023-06-14T07:02:06;5.57;;;4.57;;
75603;SDS011;64187;51.010;13.792;2023-06-14T07:07:05;5.47;;;4.40;;
75603;SDS011;64187;51.010;13.792;2023-06-14T07:12:04;6.40;;;4.88;;
75603;SDS011;64187;51.010;13.792;2023-06-14T07:17:04;6.35;;;4.10;;
75603;SDS011;64187;51.010;13.792;2023-06-14T07:22:04;6.47;;;4.43;;
75603;SDS011;64187;51.010;13.792;2023-06-14T07:27:04;8.10;;;4.55;;
75603;SDS011;64187;51.010;13.792;2023-06-14T07:32:03;5.63;;;4.53;;
75603;SDS011;64187;51.010;13.792;2023-06-14T07:37:02;5.45;;;4.20;;
75603;SDS011;64187;51.010;13.792;2023-06-14T07:42:01;6.05;;;4.90;;
75603;SDS011;64187;51.010;13.792;2023-06-14T07:47:01;4.97;;;4.25;;
75603;SDS011;64187;51.010;13.792;2023-06-14T07:52:00;5.70;;;3.65;;
75603;SDS011;64187;51.010;13.792;2023-06-14T07:56:59;3.72;;;3.22;;
75603;SDS011;64187;51.010;13.792;2023-06-14T08:01:59;3.40;;;2.90;;
75603;SDS011;64187;51.010;13.792;2023-06-14T08:06:58;3.55;;;2.90;;
75603;SDS011;64187;51.010;13.792;2023-06-14T08:11:57;3.75;;;2.88;;
75603;SDS011;64187;51.010;13.792;2023-06-14T08:16:56;3.60;;;2.42;;
75603;SDS011;64187;51.010;13.792;2023-06-14T08:21:55;4.25;;;2.67;;
75603;SDS011;64187;51.010;13.792;2023-06-14T08:26:55;3.10;;;2.80;;
75603;SDS011;64187;51.010;13.792;2023-06-14T08:31:54;4.32;;;2.35;;
75603;SDS011;64187;51.010;13.792;2023-06-14T08:36:54;2.45;;;2.22;;
75603;SDS011;64187;51.010;13.792;2023-06-14T08:41:53;3.78;;;2.97;;
75603;SDS011;64187;51.010;13.792;2023-06-14T08:46:54;3.17;;;2.88;;
75603;SDS011;64187;51.010;13.792;2023-06-14T08:51:59;2.90;;;2.47;;
75603;SDS011;64187;51.010;13.792;2023-06-14T08:56:59;3.33;;;2.47;;
75603;SDS011;64187;51.010;13.792;2023-06-14T09:01:58;2.63;;;2.40;;
75603;SDS011;64187;51.010;13.792;2023-06-14T09:07:10;3.75;;;2.88;;
75603;SDS011;64187;51.010;13.792;2023-06-14T09:12:11;5.65;;;2.97;;
75603;SDS011;64187;51.010;13.792;2023-06-14T09:17:13;5.05;;;2.78;;
75603;SDS011;64187;51.010;13.792;2023-06-14T09:22:12;3.95;;;2.30;;
75603;SDS011;64187;51.010;13.792;2023-06-14T09:27:14;3.90;;;3.03;;
75603;SDS011;64187;51.010;13.792;2023-06-14T09:32:14;4.60;;;3.08;;
75603;SDS011;64187;51.010;13.792;2023-06-14T09:37:13;3.70;;;3.05;;
75603;SDS011;64187;51.010;13.792;2023-06-14T09:42:24;3.75;;;3.13;;
75603;SDS011;64187;51.010;13.792;2023-06-14T09:47:26;4.57;;;2.95;;
75603;SDS011;64187;51.010;13.792;2023-06-14T09:52:25;3.40;;;2.95;;
75603;SDS011;64187;51.010;13.792;2023-06-14T09:57:26;3.75;;;3.30;;
75603;SDS011;64187;51.010;13.792;2023-06-14T10:02:31;4.13;;;3.25;;
75603;SDS011;64187;51.010;13.792;2023-06-14T10:07:35;5.10;;;3.13;;
75603;SDS011;64187;51.010;13.792;2023-06-14T10:12:38;3.70;;;2.72;;
75603;SDS011;64187;51.010;13.792;2023-06-14T10:22:56;3.65;;;2.75;;
75603;SDS011;64187;51.010;13.792;2023-06-14T10:28:20;2.90;;;2.40;;
75603;SDS011;64187;51.010;13.792;2023-06-14T10:33:29;2.85;;;2.20;;
75603;SDS011;64187;51.010;13.792;2023-06-14T10:38:30;2.88;;;2.40;;
75603;SDS011;64187;51.010;13.792;2023-06-14T10:43:30;3.05;;;2.17;;
75603;SDS011;64187;51.010;13.792;2023-06-14T10:48:30;2.45;;;2.20;;
75603;SDS011;64187;51.010;13.792;2023-06-14T10:53:29;4.15;;;2.28;;
75603;SDS011;64187;51.010;13.792;2023-06-14T10:58:39;4.85;;;2.50;;
75603;SDS011;64187;51.010;13.792;2023-06-14T11:03:46;3.55;;;2.33;;
75603;SDS011;64187;51.010;13.792;2023-06-14T11:14:10;4.38;;;2.45;;
75603;SDS011;64187;51.010;13.792;2023-06-14T11:19:10;4.22;;;2.63;;
75603;SDS011;64187;51.010;13.792;2023-06-14T11:24:12;3.47;;;2.92;;
75603;SDS011;64187;51.010;13.792;2023-06-14T11:29:11;4.22;;;3.83;;
75603;SDS011;64187;51.010;13.792;2023-06-14T11:34:10;3.58;;;3.28;;
75603;SDS011;64187;51.010;13.792;2023-06-14T11:39:11;4.50;;;3.30;;
75603;SDS011;64187;51.010;13.792;2023-06-14T11:44:10;4.63;;;3.70;;
75603;SDS011;64187;51.010;13.792;2023-06-14T11:49:12;4.47;;;3.75;;
75603;SDS011;64187;51.010;13.792;2023-06-14T11:54:11;7.05;;;3.17;;
75603;SDS011;64187;51.010;13.792;2023-06-14T11:59:10;4.20;;;3.53;;
75603;SDS011;64187;51.010;13.792;2023-06-14T12:04:12;4.70;;;3.58;;
75603;SDS011;64187;51.010;13.792;2023-06-14T12:09:11;3.85;;;3.38;;
75603;SDS011;64187;51.010;13.792;2023-06-14T12:14:16;4.18;;;3.42;;
75603;SDS011;64187;51.010;13.792;2023-06-14T12:19:16;4.13;;;3.70;;
75603;SDS011;64187;51.010;13.792;2023-06-14T12:24:16;4.43;;;3.65;;
75603;SDS011;64187;51.010;13.792;2023-06-14T12:29:15;4.00;;;3.53;;
75603;SDS011;64187;51.010;13.792;2023-06-14T12:34:14;4.45;;;3.45;;
75603;SDS011;64187;51.010;13.792;2023-06-14T12:39:13;5.68;;;3.83;;
75603;SDS011;64187;51.010;13.792;2023-06-14T12:44:12;5.28;;;3.47;;
75603;SDS011;64187;51.010;13.792;2023-06-14T12:49:12;4.18;;;3.53;;
75603;SDS011;64187;51.010;13.792;2023-06-14T12:54:11;4.03;;;2.88;;
75603;SDS011;64187;51.010;13.792;2023-06-14T12:59:10;3.80;;;3.22;;
75603;SDS011;64187;51.010;13.792;2023-06-14T13:04:09;7.40;;;3.08;;
75603;SDS011;64187;51.010;13.792;2023-06-14T13:09:09;4.57;;;2.92;;
75603;SDS011;64187;51.010;13.792;2023-06-14T13:14:08;4.57;;;3.58;;
75603;SDS011;64187;51.010;13.792;2023-06-14T13:19:23;3.45;;;3.15;;
75603;SDS011;64187;51.010;13.792;2023-06-14T13:24:22;4.28;;;3.55;;
75603;SDS011;64187;51.010;13.792;2023-06-14T13:29:22;3.50;;;3.20;;
75603;SDS011;64187;51.010;13.792;2023-06-14T13:34:22;3.88;;;3.38;;
75603;SDS011;64187;51.010;13.792;2023-06-14T13:39:20;4.65;;;3.97;;
75603;SDS011;64187;51.010;13.792;2023-06-14T13:44:19;4.75;;;3.70;;
75603;SDS011;64187;51.010;13.792;2023-06-14T13:49:45;4.18;;;3.63;;
75603;SDS011;64187;51.010;13.792;2023-06-14T13:55:02;4.30;;;3.33;;
75603;SDS011;64187;51.010;13.792;2023-06-14T14:00:18;4.20;;;3.35;;
75603;SDS011;64187;51.010;13.792;2023-06-14T14:05:35;5.82;;;3.47;;
75603;SDS011;64187;51.010;13.792;2023-06-14T14:10:52;5.93;;;3.05;;
75603;SDS011;64187;51.010;13.792;2023-06-14T14:16:08;3.38;;;3.05;;
75603;SDS011;64187;51.010;13.792;2023-06-14T14:21:26;4.18;;;2.80;;
75603;SDS011;64187;51.010;13.792;2023-06-14T14:26:42;4.57;;;3.00;;
75603;SDS011;64187;51.010;13.792;2023-06-14T14:31:59;4.05;;;3.17;;
75603;SDS011;64187;51.010;13.792;2023-06-14T14:36:58;3.17;;;2.55;;
75603;SDS011;64187;51.010;13.792;2023-06-14T14:41:57;5.05;;;3.10;;
75603;SDS011;64187;51.010;13.792;2023-06-14T14:46:56;3.85;;;2.90;;
75603;SDS011;64187;51.010;13.792;2023-06-14T14:51:55;5.60;;;2.70;;
75603;SDS011;64187;51.010;13.792;2023-06-14T14:57:06;5.00;;;3.00;;
75603;SDS011;64187;51.010;13.792;2023-06-14T15:02:05;5.95;;;3.28;;
75603;SDS011;64187;51.010;13.792;2023-06-14T15:07:04;3.75;;;2.95;;
75603;SDS011;64187;51.010;13.792;2023-06-14T15:12:05;2.72;;;2.40;;
75603;SDS011;64187;51.010;13.792;2023-06-14T15:17:05;3.10;;;2.70;;
75603;SDS011;64187;51.010;13.792;2023-06-14T15:22:06;3.88;;;2.80;;
75603;SDS011;64187;51.010;13.792;2023-06-14T15:27:06;4.28;;;3.03;;
75603;SDS011;64187;51.010;13.792;2023-06-14T15:32:08;3.75;;;2.03;;
75603;SDS011;64187;51.010;13.792;2023-06-14T15:37:07;4.25;;;3.15;;
75603;SDS011;64187;51.010;13.792;2023-06-14T15:42:06;3.67;;;3.17;;
75603;SDS011;64187;51.010;13.792;2023-06-14T15:47:06;3.60;;;3.28;;
75603;SDS011;64187;51.010;13.792;2023-06-14T15:52:06;3.65;;;2.47;;
75603;SDS011;64187;51.010;13.792;2023-06-14T15:57:05;3.17;;;2.75;;
75603;SDS011;64187;51.010;13.792;2023-06-14T16:02:05;4.10;;;3.17;;
75603;SDS011;64187;51.010;13.792;2023-06-14T16:07:05;3.92;;;3.15;;
75603;SDS011;64187;51.010;13.792;2023-06-14T16:12:03;6.43;;;3.78;;
75603;SDS011;64187;51.010;13.792;2023-06-14T16:17:04;4.97;;;3.88;;
75603;SDS011;64187;51.010;13.792;2023-06-14T16:22:03;6.63;;;3.92;;
75603;SDS011;64187;51.010;13.792;2023-06-14T16:27:05;5.53;;;3.83;;
75603;SDS011;64187;51.010;13.792;2023-06-14T16:32:07;4.65;;;3.90;;
75603;SDS011;64187;51.010;13.792;2023-06-14T16:37:07;4.72;;;4.03;;
75603;SDS011;64187;51.010;13.792;2023-06-14T16:42:06;4.55;;;3.92;;
75603;SDS011;64187;51.010;13.792;2023-06-14T16:47:06;4.70;;;3.75;;
75603;SDS011;64187;51.010;13.792;2023-06-14T16:52:07;4.70;;;4.13;;
75603;SDS011;64187;51.010;13.792;2023-06-14T16:57:06;4.85;;;3.70;;
75603;SDS011;64187;51.010;13.792;2023-06-14T17:02:05;5.20;;;4.20;;
75603;SDS011;64187;51.010;13.792;2023-06-14T17:07:05;6.03;;;4.95;;
75603;SDS011;64187;51.010;13.792;2023-06-14T17:12:04;5.05;;;4.65;;
75603;SDS011;64187;51.010;13.792;2023-06-14T17:17:04;4.47;;;4.07;;
75603;SDS011;64187;51.010;13.792;2023-06-14T17:22:04;5.07;;;4.57;;
75603;SDS011;64187;51.010;13.792;2023-06-14T17:27:04;4.75;;;4.18;;
75603;SDS011;64187;51.010;13.792;2023-06-14T17:32:04;5.18;;;4.32;;
75603;SDS011;64187;51.010;13.792;2023-06-14T17:37:03;5.68;;;4.80;;
75603;SDS011;64187;51.010;13.792;2023-06-14T17:42:03;5.13;;;4.63;;
75603;SDS011;64187;51.010;13.792;2023-06-14T17:47:02;5.40;;;4.43;;
75603;SDS011;64187;51.010;13.792;2023-06-14T17:52:01;4.70;;;4.20;;
75603;SDS011;64187;51.010;13.792;2023-06-14T17:57:01;6.53;;;3.90;;
75603;SDS011;64187;51.010;13.792;2023-06-14T18:01:59;5.10;;;4.25;;
75603;SDS011;64187;51.010;13.792;2023-06-14T18:06:59;5.82;;;4.40;;
75603;SDS011;64187;51.010;13.792;2023-06-14T18:11:59;4.75;;;4.25;;
75603;SDS011;64187;51.010;13.792;2023-06-14T18:16:58;5.18;;;4.68;;
75603;SDS011;64187;51.010;13.792;2023-06-14T18:21:57;6.13;;;4.68;;
75603;SDS011;64187;51.010;13.792;2023-06-14T18:26:56;5.20;;;4.20;;
75603;SDS011;64187;51.010;13.792;2023-06-14T18:31:57;4.05;;;3.65;;
75603;SDS011;64187;51.010;13.792;2023-06-14T18:36:56;4.68;;;3.63;;
75603;SDS011;64187;51.010;13.792;2023-06-14T18:41:56;5.25;;;4.28;;
75603;SDS011;64187;51.010;13.792;2023-06-14T18:46:55;7.30;;;4.75;;
75603;SDS011;64187;51.010;13.792;2023-06-14T18:51:54;5.47;;;4.05;;
75603;SDS011;64187;51.010;13.792;2023-06-14T18:56:53;5.57;;;4.32;;
75603;SDS011;64187;51.010;13.792;2023-06-14T19:01:52;5.28;;;3.90;;
75603;SDS011;64187;51.010;13.792;2023-06-14T19:06:51;5.03;;;4.45;;
75603;SDS011;64187;51.010;13.792;2023-06-14T19:11:50;4.93;;;3.75;;
75603;SDS011;64187;51.010;13.792;2023-06-14T19:16:49;4.95;;;3.97;;
75603;SDS011;64187;51.010;13.792;2023-06-14T19:21:49;5.72;;;3.95;;
75603;SDS011;64187;51.010;13.792;2023-06-14T19:26:50;4.88;;;4.40;;
75603;SDS011;64187;51.010;13.792;2023-06-14T19:31:49;5.43;;;3.97;;
75603;SDS011;64187;51.010;13.792;2023-06-14T19:36:51;5.68;;;4.20;;
75603;SDS011;64187;51.010;13.792;2023-06-14T19:41:53;5.40;;;4.18;;
75603;SDS011;64187;51.010;13.792;2023-06-14T19:46:52;4.30;;;3.63;;
75603;SDS011;64187;51.010;13.792;2023-06-14T19:51:51;4.38;;;3.75;;
75603;SDS011;64187;51.010;13.792;2023-06-14T19:56:49;5.47;;;4.30;;
75603;SDS011;64187;51.010;13.792;2023-06-14T20:01:49;6.00;;;4.43;;
75603;SDS011;64187;51.010;13.792;2023-06-14T20:06:47;5.40;;;3.92;;
75603;SDS011;64187;51.010;13.792;2023-06-14T20:11:53;4.90;;;3.90;;
75603;SDS011;64187;51.010;13.792;2023-06-14T20:16:53;4.57;;;3.95;;
75603;SDS011;64187;51.010;13.792;2023-06-14T20:21:55;6.60;;;4.18;;
75603;SDS011;64187;51.010;13.792;2023-06-14T20:26:54;6.32;;;4.32;;
75603;SDS011;64187;51.010;13.792;2023-06-14T20:31:53;8.57;;;4.75;;
75603;SDS011;64187;51.010;13.792;2023-06-14T20:36:52;5.82;;;4.68;;
75603;SDS011;64187;51.010;13.792;2023-06-14T20:41:51;6.07;;;4.13;;
75603;SDS011;64187;51.010;13.792;2023-06-14T20:46:50;7.88;;;4.45;;
75603;SDS011;64187;51.010;13.792;2023-06-14T20:51:50;5.40;;;4.40;;
75603;SDS011;64187;51.010;13.792;2023-06-14T20:56:51;6.90;;;4.70;;
75603;SDS011;64187;51.010;13.792;2023-06-14T21:01:50;6.35;;;4.60;;
75603;SDS011;64187;51.010;13.792;2023-06-14T21:06:49;5.63;;;4.95;;
75603;SDS011;64187;51.010;13.792;2023-06-14T21:11:48;6.63;;;5.35;;
75603;SDS011;64187;51.010;13.792;2023-06-14T21:16:46;6.97;;;6.28;;
75603;SDS011;64187;51.010;13.792;2023-06-14T21:21:48;7.55;;;4.75;;
75603;SDS011;64187;51.010;13.792;2023-06-14T21:26:47;8.25;;;5.13;;
75603;SDS011;64187;51.010;13.792;2023-06-14T21:31:46;7.80;;;6.35;;
75603;SDS011;64187;51.010;13.792;2023-06-14T21:36:46;7.38;;;6.10;;
75603;SDS011;64187;51.010;13.792;2023-06-14T21:41:45;8.35;;;6.85;;
75603;SDS011;64187;51.010;13.792;2023-06-14T21:46:43;9.82;;;6.18;;
75603;SDS011;64187;51.010;13.792;2023-06-14T21:51:42;6.70;;;5.68;;
75603;SDS011;64187;51.010;13.792;2023-06-14T21:56:42;5.88;;;4.93;;
75603;SDS011;64187;51.010;13.792;2023-06-14T22:01:41;7.03;;;5.18;;
75603;SDS011;64187;51.010;13.792;2023-06-14T22:06:40;5.90;;;5.13;;
75603;SDS011;64187;51.010;13.792;2023-06-14T22:11:43;7.00;;;5.60;;
75603;SDS011;64187;51.010;13.792;2023-06-14T22:16:43;7.13;;;5.80;;
75603;SDS011;64187;51.010;13.792;2023-06-14T22:21:42;7.25;;;5.75;;
75603;SDS011;64187;51.010;13.792;2023-06-14T22:26:43;5.90;;;4.80;;
75603;SDS011;64187;51.010;13.792;2023-06-14T22:31:51;7.35;;;5.15;;
75603;SDS011;64187;51.010;13.792;2023-06-14T22:36:50;7.15;;;5.43;;
75603;SDS011;64187;51.010;13.792;2023-06-14T22:41:51;9.35;;;5.45;;
75603;SDS011;64187;51.010;13.792;2023-06-14T22:46:52;7.22;;;5.18;;
75603;SDS011;64187;51.010;13.792;2023-06-14T22:51:53;7.10;;;5.95;;
75603;SDS011;64187;51.010;13.792;2023-06-14T22:56:54;6.60;;;5.13;;
75603;SDS011;64187;51.010;13.792;2023-06-14T23:01:55;7.32;;;5.20;;
75603;SDS011;64187;51.010;13.792;2023-06-14T23:06:54;7.25;;;5.13;;
75603;SDS011;64187;51.010;13.792;2023-06-14T23:11:53;7.57;;;4.80;;
75603;SDS011;64187;51.010;13.792;2023-06-14T23:16:52;10.02;;;5.45;;
75603;SDS011;64187;51.010;13.792;2023-06-14T23:21:52;7.28;;;5.05;;
75603;SDS011;64187;51.010;13.792;2023-06-14T23:26:51;7.25;;;5.40;;
75603;SDS011;64187;51.010;13.792;2023-06-14T23:31:50;8.18;;;5.78;;
75603;SDS011;64187;51.010;13.792;2023-06-14T23:36:51;7.05;;;5.90;;
75603;SDS011;64187;51.010;13.792;2023-06-14T23:41:51;9.18;;;6.00;;
75603;SDS011;64187;51.010;13.792;2023-06-14T23:46:52;8.15;;;6.03;;
75603;SDS011;64187;51.010;13.792;2023-06-14T23:51:55;9.15;;;7.00;;
75603;SDS011;64187;51.010;13.792;2023-06-14T23:56:56;6.90;;;5.07;;
